Latest Weather Observations for Parawa West

IDS60901

Issued at 11:01 am CST Tuesday 28 July 2015 (issued every 10 minutes, with the page automatically refreshed every 10 minutes)

About weather observations | Map of Adelaide area stations | Latest observations for Adelaide area | Other Formats
Station Details ID: 023875 Name: SECOND VALLEY FOREST AWS Lat: -35.57 Lon: 138.29 Height: 341.0 m
Data from the previous 72 hours. | See also: Recent months at Parawa West
Date/Time
CST
Tmp

°C
App
Tmp
°C
Dew
Point
°C
Rel
Hum
%
Delta-T

°C
Wind Press
QNH
hPa
Press
MSL
hPa
Rain
since
9 am
mm
Dir
 
Spd
km/h
Gust
km/h
Spd
kts
Gust
kts
28/11:00am 8.3 6.0 7.5 95 0.4 NW 9 17 5 9 1036.7 1037.2 0.4
28/10:30am 8.1 4.6 7.2 94 0.4 NNW 15 22 8 12 1036.8 1037.3 0.2
28/10:00am 8.0 5.3 7.4 96 0.3 NW 11 19 6 10 1036.6 1037.1 0.2
28/09:30am 8.1 5.5 7.7 97 0.2 NNW 11 17 6 9 1036.3 1036.7 0.2
28/09:00am 7.6 5.6 7.2 97 0.2 NNW 7 15 4 8 1036.4 1036.9 0.4
28/08:30am 7.7 5.9 7.3 97 0.2 NNW 6 7 3 4 1036.1 1036.5 0.4
28/08:00am 6.7 5.5 6.3 97 0.2 NNW 2 6 1 3 1036.1 1036.5 0.4
28/07:30am 6.8 4.8 6.4 97 0.2 NNW 6 9 3 5 1036.0 1036.4 0.4
28/07:00am 6.8 4.6 6.4 97 0.2 NW 7 13 4 7 1036.0 1036.4 0.4
28/06:30am 6.8 4.6 6.4 97 0.2 NNW 7 9 4 5 1036.0 1036.4 0.4
28/06:00am 6.7 4.5 6.3 97 0.2 NW 7 13 4 7 1035.7 1036.2 0.4
28/05:30am 6.8 4.3 6.4 97 0.2 NW 9 13 5 7 1035.3 1035.8 0.4
28/05:00am 6.5 4.3 6.1 97 0.2 NNW 7 11 4 6 1035.2 1035.7 0.4
28/04:30am 6.3 4.2 5.7 96 0.3 NW 6 7 3 4 1034.8 1035.3 0.4
28/04:00am 6.5 4.4 5.9 96 0.3 NW 6 9 3 5 1034.9 1035.4 0.4
28/03:30am 6.6 4.9 6.0 96 0.3 NW 4 7 2 4 1035.0 1035.5 0.4
28/03:00am 6.5 4.8 5.9 96 0.3 WNW 4 7 2 4 1035.0 1035.5 0.4
28/02:30am 6.3 4.0 5.7 96 0.3 NW 7 9 4 5 1035.1 1035.6 0.4
28/02:00am 6.0 3.6 5.4 96 0.3 NW 7 9 4 5 1035.0 1035.5 0.4
28/01:30am 5.9 3.5 5.3 96 0.3 WNW 7 9 4 5 1034.9 1035.4 0.4
28/01:00am 6.2 3.9 5.5 95 0.3 WNW 7 9 4 5 1034.8 1035.3 0.0
28/12:30am 5.9 3.5 5.2 95 0.3 WNW 7 9 4 5 1034.9 1035.4 0.0
28/12:00am 6.3 4.0 5.6 95 0.3 WNW 7 9 4 5 1034.9 1035.4 0.0
 
Date/Time
CST
Tmp

°C
App
Tmp
°C
Dew
Point
°C
Rel
Hum
%
Delta-T

°C
Wind Press
QNH
hPa
Press
MSL
hPa
Rain
since
9 am
mm
Dir
 
Spd
km/h
Gust
km/h
Spd
kts
Gust
kts
27/11:30pm 6.1 3.7 5.2 94 0.4 W 7 9 4 5 1034.8 1035.3 0.0
27/11:00pm 6.2 3.4 5.3 94 0.4 W 9 9 5 5 1034.7 1035.2 0.0
27/10:30pm 6.2 3.8 5.3 94 0.4 W 7 9 4 5 1034.8 1035.3 0.0
27/10:00pm 6.2 3.4 5.2 93 0.4 W 9 9 5 5 1034.9 1035.4 0.0
27/09:30pm 6.2 3.4 5.3 94 0.4 W 9 11 5 6 1035.0 1035.5 0.0
27/09:00pm 6.3 3.9 5.3 93 0.4 W 7 9 4 5 1034.9 1035.4 0.0
27/08:30pm 6.4 3.7 5.4 93 0.4 W 9 13 5 7 1034.7 1035.2 0.0
27/08:00pm 6.5 4.2 5.5 93 0.5 WNW 7 7 4 4 1034.7 1035.2 0.0
27/07:30pm 6.6 4.2 5.4 92 0.5 WNW 7 9 4 5 1034.6 1035.1 0.0
27/07:00pm 6.8 4.5 5.6 92 0.5 W 7 9 4 5 1034.5 1035.0 0.0
27/06:30pm 7.0 4.8 5.5 90 0.7 W 6 7 3 4 1034.3 1034.8 0.0
27/06:00pm 6.9 5.1 5.2 89 0.8 W 4 6 2 3 1034.2 1034.7 0.0
27/05:30pm 7.0 4.7 4.7 85 1.0 W 6 6 3 3 1033.9 1034.4 0.0
27/05:00pm 8.2 5.4 5.0 80 1.5 W 9 13 5 7 1033.7 1034.1 0.0
27/04:30pm 8.2 5.8 5.3 82 1.3 W 7 13 4 7 1033.6 1034.0 0.0
27/04:00pm 8.5 5.4 5.4 81 1.4 W 11 19 6 10 1033.7 1034.1 0.0
27/03:30pm 8.8 5.7 5.5 80 1.5 WSW 11 20 6 11 1033.6 1034.0 0.0
27/03:00pm 9.4 5.3 4.4 71 2.2 W 15 24 8 13 1033.3 1033.7 0.0
27/02:30pm 9.1 5.3 3.9 70 2.3 WNW 13 20 7 11 1033.2 1033.6 0.0
27/02:00pm 9.6 5.7 5.2 74 2.0 W 15 22 8 12 1033.0 1033.4 0.0
27/01:30pm 9.8 5.7 4.2 68 2.5 WNW 15 22 8 12 1032.9 1033.3 0.0
27/01:00pm 10.2 6.5 4.6 68 2.6 WNW 13 24 7 13 1033.1 1033.5 0.0
27/12:30pm 9.3 5.6 4.3 71 2.2 W 13 17 7 9 1033.4 1033.8 0.0
27/12:00pm 8.8 6.3 4.6 75 1.9 WSW 7 13 4 7 1033.7 1034.1 0.0
27/11:30am 9.0 4.9 4.4 73 2.0 W 15 20 8 11 1033.8 1034.2 0.0
27/11:00am 9.1 6.0 5.7 79 1.6 W 11 15 6 8 1033.9 1034.4 0.0
27/10:30am 8.3 4.5 4.1 75 1.8 W 13 20 7 11 1034.0 1034.5 0.0
27/10:00am 8.4 5.7 5.5 82 1.3 W 9 13 5 7 1033.8 1034.2 0.0
27/09:30am 7.8 4.3 5.4 85 1.1 WSW 13 22 7 12 1033.6 1034.0 0.0
27/09:00am 7.6 4.0 5.1 84 1.1 W 13 19 7 10 1033.1 1033.5 1.0
27/08:30am 6.6 3.3 4.6 87 0.9 W 11 13 6 7 1032.6 1033.1 1.0
27/08:00am 6.6 2.9 4.3 85 1.0 W 13 20 7 11 1032.4 1032.9 1.0
27/07:30am 5.6 2.2 4.2 91 0.6 W 11 17 6 9 1031.9 1032.4 1.0
27/07:00am 5.6 2.2 4.1 90 0.7 W 11 15 6 8 1031.6 1032.1 1.0
27/06:30am 5.8 2.7 3.8 87 0.9 SW 9 15 5 8 1031.5 1032.0 1.0
27/06:00am 5.8 1.9 3.5 85 1.0 W 13 17 7 9 1031.0 1031.4 1.0
27/05:30am 5.7 2.7 3.9 88 0.8 W 9 13 5 7 1030.7 1031.1 1.0
27/05:00am 5.8 2.5 4.3 90 0.7 WSW 11 19 6 10 1030.5 1030.9 1.0
27/04:30am 5.8 2.7 3.5 85 1.0 WSW 9 13 5 7 1030.1 1030.5 1.0
27/04:00am 5.0 1.9 3.8 92 0.5 W 9 13 5 7 1029.9 1030.3 1.0
27/03:30am 5.0 1.5 3.7 91 0.5 W 11 13 6 7 1029.9 1030.3 1.0
27/03:00am 5.3 1.4 3.6 89 0.7 W 13 17 7 9 1029.8 1030.2 1.0
27/02:30am 5.0 1.4 3.2 88 0.8 W 11 13 6 7 1029.7 1030.1 1.0
27/02:00am 5.0 1.4 2.9 86 0.9 W 11 15 6 8 1029.5 1030.0 1.0
27/01:30am 5.4 2.3 3.4 87 0.8 W 9 15 5 8 1029.5 1030.0 1.0
27/01:00am 5.1 2.3 3.4 89 0.7 SSW 7 9 4 5 1029.3 1029.8 1.0
27/12:30am 5.5 1.9 3.2 85 1.0 WSW 11 15 6 8 1029.3 1029.8 1.0
27/12:00am 5.4 2.2 2.9 84 1.0 WSW 9 15 5 8 1029.2 1029.7 1.0
 
Date/Time
CST
Tmp

°C
App
Tmp
°C
Dew
Point
°C
Rel
Hum
%
Delta-T

°C
Wind Press
QNH
hPa
Press
MSL
hPa
Rain
since
9 am
mm
Dir
 
Spd
km/h
Gust
km/h
Spd
kts
Gust
kts
26/11:30pm 5.8 2.3 3.3 84 1.1 SW 11 15 6 8 1028.9 1029.4 1.0
26/11:00pm 5.3 2.7 3.3 87 0.8 SW 6 9 3 5 1028.7 1029.1 1.0
26/10:30pm 5.3 2.6 3.6 89 0.7 SW 7 11 4 6 1028.6 1029.0 1.0
26/10:00pm 5.6 2.5 3.8 88 0.8 SW 9 13 5 7 1028.6 1029.0 0.8
26/09:30pm 5.4 2.7 3.6 88 0.8 WSW 7 13 4 7 1028.3 1028.7 0.8
26/09:00pm 5.7 2.7 4.0 89 0.7 W 9 15 5 8 1027.9 1028.3 0.8
26/08:30pm 5.5 2.8 3.8 89 0.7 WSW 7 13 4 7 1027.6 1028.0 0.8
26/08:00pm 5.5 2.0 3.5 87 0.9 W 11 17 6 9 1027.2 1027.6 0.8
26/07:30pm 5.7 2.9 2.9 82 1.2 WSW 7 11 4 6 1026.9 1027.3 0.6
26/07:00pm 5.9 2.7 3.1 82 1.2 WSW 9 15 5 8 1026.3 1026.7 0.6
26/06:30pm 5.6 2.5 3.4 86 0.9 WSW 9 13 5 7 1025.9 1026.3 0.6
26/06:00pm 6.0 1.8 3.8 86 0.9 SW 15 24 8 13 1025.5 1025.9 0.6
26/05:30pm 6.7 2.7 2.8 76 1.6 SW 13 19 7 10 1024.9 1025.3 0.6
26/05:00pm 6.9 3.4 3.3 78 1.5 SW 11 19 6 10 1024.7 1025.1 0.6
26/04:30pm 6.3 2.1 3.6 83 1.2 WSW 15 22 8 12 1024.4 1024.8 0.6
26/04:00pm 7.5 2.3 2.6 71 2.1 SW 19 30 10 16 1024.0 1024.4 0.2
26/03:30pm 7.8 2.7 2.9 71 2.1 WSW 19 28 10 15 1023.5 1023.8 0.2
26/03:00pm 7.5 3.1 2.6 71 2.1 WSW 15 30 8 16 1023.6 1023.9 0.2
26/02:30pm 7.6 2.7 4.0 78 1.6 SW 19 28 10 15 1023.1 1023.5 0.2
26/02:00pm 7.8 2.1 2.7 70 2.2 WSW 22 35 12 19 1022.9 1023.3 0.2
26/01:30pm 8.1 1.9 2.1 66 2.5 WSW 24 39 13 21 1022.6 1023.0 0.2
26/01:00pm 7.2 2.6 3.8 79 1.5 WSW 17 30 9 16 1022.6 1023.0 0.2
26/12:30pm 8.3 2.3 1.2 61 2.9 WSW 22 37 12 20 1022.2 1022.6 0.0
26/12:00pm 8.3 3.0 3.0 69 2.3 WSW 20 39 11 21 1022.4 1022.8 0.0
26/11:30am 7.5 2.5 4.6 82 1.3 W 20 32 11 17 1022.5 1022.9 0.0
26/11:00am 8.3 3.6 3.0 69 2.3 WSW 17 32 9 17 1022.4 1022.8 0.0
26/10:30am 7.7 2.6 2.8 71 2.1 SW 19 32 10 17 1022.1 1022.5 0.0
26/10:00am 7.5 2.2 3.2 74 1.9 W 20 30 11 16 1021.6 1022.0 0.0
26/09:30am 6.9 1.5 2.2 72 2.0 W 20 28 11 15 1021.2 1021.5 0.0
26/09:00am 6.8 2.7 2.3 73 1.9 W 13 19 7 10 1021.0 1021.3 15.6
26/08:30am 6.1 1.2 2.0 75 1.7 W 17 24 9 13 1020.5 1020.8 15.6
26/08:00am 5.7 0.8 2.0 77 1.5 W 17 26 9 14 1020.1 1020.5 15.6
26/07:30am 5.2 1.0 1.5 77 1.5 W 13 24 7 13 1019.4 1019.8 15.6
26/07:00am 5.6 0.2 1.2 73 1.8 W 19 28 10 15 1018.9 1019.2 15.6
26/06:30am 5.7 0.8 1.8 76 1.6 W 17 24 9 13 1018.3 1018.6 15.6
26/06:00am 5.1 0.6 2.3 82 1.2 W 15 24 8 13 1017.5 1017.8 15.6
26/05:30am 5.2 0.7 2.0 80 1.3 W 15 24 8 13 1017.4 1017.7 15.6
26/05:00am 5.4 0.2 2.2 80 1.3 W 19 28 10 15 1016.9 1017.3 15.6
26/04:30am 5.2 0.3 2.2 81 1.2 W 17 26 9 14 1016.7 1017.1 15.6
26/04:00am 5.7 0.4 2.0 77 1.5 WSW 19 33 10 18 1016.4 1016.7 15.6
26/03:30am 5.8 0.3 1.7 75 1.7 W 20 32 11 17 1015.9 1016.2 15.6
26/03:00am 5.8 -0.4 2.3 78 1.5 W 24 37 13 20 1015.9 1016.2 15.6
26/02:30am 6.4 -0.1 2.5 76 1.6 W 26 37 14 20 1015.7 1016.0 15.6
26/02:00am 6.4 1.1 2.9 78 1.5 W 20 32 11 17 1015.6 1015.9 15.6
26/01:30am 6.6 1.3 3.0 78 1.5 W 20 30 11 16 1015.4 1015.7 15.6
26/01:00am 6.8 0.8 3.2 78 1.5 W 24 37 13 20 1015.2 1015.5 15.6
26/12:30am 6.5 0.2 3.8 83 1.2 W 26 41 14 22 1015.0 1015.3 15.6
26/12:00am 6.7 1.1 3.7 81 1.3 W 22 37 12 20 1014.8 1015.1 15.6
 
Date/Time
CST
Tmp

°C
App
Tmp
°C
Dew
Point
°C
Rel
Hum
%
Delta-T

°C
Wind Press
QNH
hPa
Press
MSL
hPa
Rain
since
9 am
mm
Dir
 
Spd
km/h
Gust
km/h
Spd
kts
Gust
kts
25/11:30pm 7.2 -0.3 3.6 78 1.6 W 32 50 17 27 1014.4 1014.7 15.6
25/11:01pm 7.7 1.0 3.9 77 1.7 W 28 48 15 26 1013.8 1014.1 15.6
25/11:00pm 7.7 1.1 4.1 78 1.6 W 28 41 15 22 1013.8 1014.1 15.6
25/10:32pm 7.9 0.5 5.0 82 1.3 W 33 52 18 28 1014.0 1014.3 15.6
25/10:30pm 8.0 0.2 4.9 81 1.4 W 35 52 19 28 1013.9 1014.2 15.6
25/10:04pm 8.1 1.5 5.9 86 1.0 W 30 48 16 26 1013.7 1014.0 15.6
25/10:00pm 8.2 1.2 6.0 86 1.0 W 32 48 17 26 1013.7 1014.0 15.6
25/09:45pm 8.2 2.1 6.7 90 0.7 W 28 54 15 29 1013.6 1013.9 15.6
25/09:30pm 8.4 2.4 7.2 92 0.6 W 28 43 15 23 1013.6 1013.9 15.6
25/09:00pm 8.8 2.9 7.7 93 0.5 W 28 41 15 22 1013.3 1013.6 15.4
25/08:30pm 9.0 3.6 8.1 94 0.4 W 26 39 14 21 1012.6 1012.9 15.4
25/08:02pm 9.2 3.6 8.6 96 0.3 W 28 48 15 26 1012.5 1012.8 15.4
25/08:00pm 9.2 4.3 8.6 96 0.3 W 24 43 13 23 1012.4 1012.7 15.4
25/07:30pm 9.5 4.7 8.9 96 0.3 WNW 24 43 13 23 1012.1 1012.4 13.8
25/07:02pm 9.8 3.6 9.2 96 0.3 WNW 32 59 17 32 1011.6 1011.8 13.8
25/07:00pm 10.3 4.6 9.7 96 0.3 WNW 30 46 16 25 1011.6 1011.8 13.4
25/06:58pm 10.6 5.3 10.0 96 0.3 NW 28 48 15 26 1011.7 1012.0 12.8
25/06:30pm 10.4 3.4 9.8 96 0.3 NW 37 70 20 38 1010.6 1010.9 8.2
25/06:00pm 10.6 3.6 10.0 96 0.3 NW 37 63 20 34 1010.5 1010.8 7.2
25/05:30pm 10.5 4.4 9.9 96 0.3 NW 32 65 17 35 1010.6 1010.9 5.4
25/05:00pm 10.7 4.5 9.9 95 0.4 NNW 33 57 18 31 1010.2 1010.5 2.2
25/04:30pm 10.5 4.2 9.7 95 0.4 NNW 33 56 18 30 1010.4 1010.7 2.2
25/04:01pm 10.4 3.3 9.6 95 0.4 NNW 37 57 20 31 1010.6 1010.9 2.2
25/04:00pm 10.4 2.9 9.6 95 0.4 NNW 39 57 21 31 1010.7 1011.0 2.2
25/03:30pm 10.2 4.4 9.4 95 0.4 NNW 30 48 16 26 1010.5 1010.8 2.2
25/03:00pm 10.4 4.1 9.0 91 0.7 NW 32 57 17 31 1010.8 1011.1 0.2
25/02:30pm 10.4 4.5 9.0 91 0.7 NNW 30 54 16 29 1010.9 1011.2 0.2
25/02:09pm 10.5 4.2 8.9 90 0.8 NNW 32 52 17 28 1011.2 1011.4 0.2
25/02:00pm 10.5 3.6 8.8 89 0.9 NNW 35 50 19 27 1011.1 1011.3 0.2
25/01:32pm 10.3 2.6 8.6 89 0.8 NNW 39 57 21 31 1011.6 1011.8 0.2
25/01:30pm 10.3 2.1 8.4 88 0.9 NW 41 57 22 31 1011.5 1011.7 0.2
25/01:16pm 10.4 2.2 8.3 87 1.0 NW 41 63 22 34 1011.7 1012.0 0.2
25/01:00pm 10.6 2.8 8.2 85 1.2 NW 39 57 21 31 1011.9 1012.2 0.2
25/12:30pm 10.3 2.8 8.1 86 1.1 NW 37 61 20 33 1012.5 1012.8 0.2
25/12:01pm 10.2 2.7 8.0 86 1.1 NW 37 56 20 30 1013.1 1013.4 0.2
25/12:00pm 10.3 2.8 8.1 86 1.1 NW 37 56 20 30 1013.2 1013.5 0.2
25/11:30am 10.1 3.6 8.2 88 0.9 NNW 32 52 17 28 1013.3 1013.6 0.2

Latest Capital City Observations: Canberra | Sydney | Melbourne | Brisbane | Adelaide | Perth | Hobart | Darwin

Other Formats:

Comma delimited format used in spreadsheet applications
http://www.bom.gov.au/fwo/IDS60901/IDS60901.94811.axf

JavaScript Object Notation format (JSON) in row-major order
http://www.bom.gov.au/fwo/IDS60901/IDS60901.94811.json